createdAt,value
2023-03-20T00:02:25.793Z,99296.03
2023-03-20T00:04:54.306Z,99289.44
2023-03-20T00:07:22.781Z,99291.06
2023-03-20T00:09:51.250Z,99290.28
2023-03-20T00:12:27.171Z,99288.88
2023-03-20T00:14:55.742Z,99296.56
2023-03-20T00:17:24.161Z,99289.69
2023-03-20T00:19:52.626Z,99289.94
2023-03-20T00:22:21.157Z,99284.38
2023-03-20T00:24:49.734Z,99286.59
2023-03-20T00:27:21.082Z,99284.91
2023-03-20T00:29:49.550Z,99275.00
2023-03-20T00:32:18.284Z,99279.66
2023-03-20T00:34:46.984Z,99281.81
2023-03-20T00:37:15.537Z,99280.16
2023-03-20T00:39:43.981Z,99278.75
2023-03-20T00:42:22.444Z,99273.78
2023-03-20T00:44:54.499Z,99281.22
2023-03-20T00:47:24.633Z,99273.19
2023-03-20T00:49:55.962Z,99278.13
2023-03-20T00:52:26.064Z,99274.53
2023-03-20T00:54:54.746Z,99266.47
2023-03-20T00:57:29.049Z,99265.38
2023-03-20T01:00:05.344Z,99262.63
2023-03-20T01:02:34.359Z,99267.84
2023-03-20T01:05:03.839Z,99270.91
2023-03-20T01:07:32.652Z,99258.50
2023-03-20T01:10:01.235Z,99264.56
2023-03-20T01:12:31.003Z,99265.44
2023-03-20T01:15:00.574Z,99278.16
2023-03-20T01:17:30.474Z,99279.00
2023-03-20T01:19:58.908Z,99269.94
2023-03-20T01:22:27.377Z,99275.50
2023-03-20T01:24:55.856Z,99276.63
2023-03-20T01:27:24.509Z,99273.88
2023-03-20T01:29:54.324Z,99274.19
2023-03-20T01:32:22.745Z,99282.22
2023-03-20T01:34:51.409Z,99285.81
2023-03-20T01:37:27.198Z,99277.88
2023-03-20T01:39:57.274Z,99278.72
2023-03-20T01:42:26.120Z,99280.66
2023-03-20T01:44:55.991Z,99284.25
2023-03-20T01:47:27.791Z,99293.06
2023-03-20T01:50:32.140Z,99290.59
2023-03-20T01:53:08.702Z,99289.19
2023-03-20T01:55:39.564Z,99290.59
2023-03-20T01:58:15.384Z,99290.03
2023-03-20T02:00:46.370Z,99285.09
2023-03-20T02:03:14.892Z,99284.28
2023-03-20T02:05:44.877Z,99279.56
2023-03-20T02:08:28.250Z,99283.44
2023-03-20T02:10:58.521Z,99283.16
2023-03-20T02:13:30.382Z,99284.81
2023-03-20T02:16:08.506Z,99284.00
2023-03-20T02:18:38.143Z,99284.53
2023-03-20T02:21:55.100Z,99282.31
2023-03-20T02:25:29.614Z,99280.41
2023-03-20T02:28:58.748Z,99285.66
2023-03-20T02:32:15.553Z,99286.50
2023-03-20T02:35:28.961Z,99301.66
2023-03-20T02:38:21.641Z,99299.19
2023-03-20T02:41:00.134Z,99303.88
2023-03-20T02:43:42.620Z,99307.72
2023-03-20T02:46:22.584Z,99298.66
2023-03-20T02:48:58.206Z,99302.19
2023-03-20T02:51:37.888Z,99297.53
2023-03-20T02:54:15.508Z,99296.69
2023-03-20T02:56:57.434Z,99305.25
2023-03-20T02:59:34.185Z,99306.34
2023-03-20T03:02:09.817Z,99310.22
2023-03-20T03:04:43.846Z,99301.41
2023-03-20T03:07:16.141Z,99307.47
2023-03-20T03:09:52.658Z,99306.63
2023-03-20T03:12:25.174Z,99305.53
2023-03-20T03:14:56.486Z,99308.00
2023-03-20T03:17:29.008Z,99312.41
2023-03-20T03:20:05.703Z,99305.78
2023-03-20T03:22:36.364Z,99317.91
2023-03-20T03:25:07.986Z,99311.00
2023-03-20T03:27:42.229Z,99311.56
2023-03-20T03:30:18.801Z,99310.47
2023-03-20T03:32:52.536Z,99311.28
2023-03-20T03:35:24.677Z,99309.34
2023-03-20T03:38:02.378Z,99306.88
2023-03-20T03:40:39.881Z,99314.31
2023-03-20T03:43:15.330Z,99308.00
2023-03-20T03:45:50.760Z,99308.25
2023-03-20T03:48:24.704Z,99314.59
2023-03-20T03:50:57.615Z,99314.06
2023-03-20T03:53:33.048Z,99310.19
2023-03-20T03:56:07.496Z,99310.19
2023-03-20T03:58:42.988Z,99308.53
2023-03-20T04:01:14.044Z,99301.13
2023-03-20T04:03:50.210Z,99307.72
2023-03-20T04:06:19.387Z,99312.66
2023-03-20T04:08:47.806Z,99311.00
2023-03-20T04:11:20.306Z,99311.00
2023-03-20T04:13:51.491Z,99302.75
2023-03-20T04:16:22.365Z,99311.84
2023-03-20T04:18:51.542Z,99312.38
2023-03-20T04:21:20.189Z,99305.25
2023-03-20T04:23:48.617Z,99298.91
2023-03-20T04:26:18.427Z,99304.41
2023-03-20T04:28:46.916Z,99296.16
2023-03-20T04:31:15.377Z,99301.13
2023-03-20T04:33:43.839Z,99304.94
2023-03-20T04:36:13.553Z,99300.56
2023-03-20T04:38:42.609Z,99300.81
2023-03-20T04:41:11.090Z,99306.34
2023-03-20T04:43:41.470Z,99302.19
2023-03-20T04:46:09.916Z,99306.91
2023-03-20T04:48:38.326Z,99310.75
2023-03-20T04:51:07.905Z,99307.16
2023-03-20T04:53:36.789Z,99308.84
2023-03-20T04:56:05.594Z,99314.59
2023-03-20T04:58:35.974Z,99319.56
2023-03-20T05:01:06.184Z,99327.28
2023-03-20T05:03:35.354Z,99330.88
2023-03-20T05:06:03.888Z,99335.53
2023-03-20T05:08:32.433Z,99340.22
2023-03-20T05:11:00.896Z,99342.72
2023-03-20T05:13:29.301Z,99350.97
2023-03-20T05:15:57.708Z,99358.94
2023-03-20T05:18:27.537Z,99352.34
2023-03-20T05:20:55.963Z,99362.81
2023-03-20T05:23:24.340Z,99364.47
2023-03-20T05:25:52.773Z,99369.44
2023-03-20T05:28:21.168Z,99371.34
2023-03-20T05:30:49.692Z,99372.44
2023-03-20T05:33:18.184Z,99371.06
2023-03-20T05:35:48.332Z,99381.81
2023-03-20T05:38:16.773Z,99378.50
2023-03-20T05:40:45.251Z,99388.97
2023-03-20T05:43:13.660Z,99389.22
2023-03-20T05:45:43.383Z,99390.31
2023-03-20T05:48:11.960Z,99390.53
2023-03-20T05:50:40.955Z,99401.00
2023-03-20T05:53:11.012Z,99399.31
2023-03-20T05:55:39.722Z,99395.16
2023-03-20T05:58:08.283Z,99410.03
2023-03-20T06:00:36.678Z,99405.31
2023-03-20T06:03:06.883Z,99408.59
2023-03-20T06:05:35.968Z,99404.97
2023-03-20T06:08:05.717Z,99410.75
2023-03-20T06:10:35.523Z,99416.00
2023-03-20T06:13:04.004Z,99418.19
2023-03-20T06:15:32.659Z,99418.72
2023-03-20T06:18:01.364Z,99415.97
2023-03-20T06:20:29.913Z,99415.09
2023-03-20T06:22:58.423Z,99417.56
2023-03-20T06:25:26.938Z,99421.41
2023-03-20T06:27:57.832Z,99410.03
2023-03-20T06:30:26.423Z,99412.78
2023-03-20T06:32:54.881Z,99411.34
2023-03-20T06:35:23.444Z,99412.13
2023-03-20T06:37:51.961Z,99415.94
2023-03-20T06:40:21.798Z,99421.41
2023-03-20T06:42:50.408Z,99425.19
2023-03-20T06:45:20.913Z,99417.94
2023-03-20T06:47:49.391Z,99421.72
2023-03-20T06:50:18.357Z,99422.47
2023-03-20T06:52:47.522Z,99432.31
2023-03-20T06:55:16.229Z,99423.94
2023-03-20T06:57:44.656Z,99416.38
2023-03-20T07:00:15.084Z,99430.41
2023-03-20T07:02:45.138Z,99429.69
2023-03-20T07:05:13.851Z,99429.59
2023-03-20T07:07:42.342Z,99431.94
2023-03-20T07:10:12.573Z,99430.44
2023-03-20T07:12:41.098Z,99432.22
2023-03-20T07:15:11.309Z,99434.03
2023-03-20T07:17:39.820Z,99432.25
2023-03-20T07:20:11.987Z,99438.00
2023-03-20T07:22:41.572Z,99436.44
2023-03-20T07:25:11.329Z,99433.00
2023-03-20T07:27:39.796Z,99430.38
2023-03-20T07:30:09.999Z,99434.09
2023-03-20T07:32:38.684Z,99432.00
2023-03-20T07:35:10.440Z,99438.72
2023-03-20T07:37:39.191Z,99433.75
2023-03-20T07:40:09.623Z,99435.47
2023-03-20T07:42:38.154Z,99433.56
2023-03-20T07:45:09.403Z,99437.19
2023-03-20T07:47:38.331Z,99434.63
2023-03-20T07:50:09.753Z,99433.72
2023-03-20T07:52:38.378Z,99441.94
2023-03-20T07:55:07.797Z,99428.56
2023-03-20T07:57:36.246Z,99432.38
2023-03-20T08:00:07.306Z,99431.41
2023-03-20T08:02:35.834Z,99439.38
2023-03-20T08:05:04.681Z,99431.31
2023-03-20T08:07:35.292Z,99439.22
2023-03-20T08:10:04.694Z,99436.13
2023-03-20T08:12:33.236Z,99436.84
2023-03-20T08:15:01.711Z,99439.69
2023-03-20T08:17:30.133Z,99432.03
2023-03-20T08:19:58.714Z,99433.88
2023-03-20T08:22:27.229Z,99427.03
2023-03-20T08:24:57.017Z,99423.50
2023-03-20T08:27:25.615Z,99422.22
2023-03-20T08:29:54.129Z,99419.94
2023-03-20T08:32:22.644Z,99419.78
2023-03-20T08:34:51.256Z,99414.09
2023-03-20T08:37:20.610Z,99417.25
2023-03-20T08:39:49.371Z,99418.25
2023-03-20T08:42:19.211Z,99420.06
2023-03-20T08:44:48.267Z,99419.09
2023-03-20T08:47:16.771Z,99425.00
2023-03-20T08:49:45.255Z,99417.16
2023-03-20T08:52:13.684Z,99424.53
2023-03-20T08:54:42.174Z,99427.31
2023-03-20T08:57:10.682Z,99427.97
2023-03-20T08:59:40.502Z,99427.97
2023-03-20T09:02:12.062Z,99427.00
2023-03-20T09:04:40.935Z,99426.06
2023-03-20T09:07:09.528Z,99414.78
2023-03-20T09:09:37.996Z,99424.16
2023-03-20T09:12:07.462Z,99426.28
2023-03-20T09:14:36.520Z,99427.94
2023-03-20T09:17:06.966Z,99418.63
2023-03-20T09:19:37.944Z,99428.94
2023-03-20T09:22:06.484Z,99423.09
2023-03-20T09:24:35.516Z,99434.25
2023-03-20T09:27:04.015Z,99424.59
2023-03-20T09:29:32.626Z,99427.06
2023-03-20T09:32:01.195Z,99425.59
2023-03-20T09:34:31.034Z,99432.31
2023-03-20T09:36:59.531Z,99420.16
2023-03-20T09:39:28.107Z,99418.22
2023-03-20T09:41:57.918Z,99422.94
2023-03-20T09:44:47.279Z,99423.44
2023-03-20T09:47:24.136Z,99417.72
2023-03-20T09:50:07.937Z,99422.00
2023-03-20T09:52:42.110Z,99415.94
2023-03-20T09:55:17.583Z,99419.72
2023-03-20T09:57:51.761Z,99417.31
2023-03-20T10:00:24.698Z,99404.81
2023-03-20T10:02:59.441Z,99416.31
2023-03-20T10:05:33.040Z,99412.06
2023-03-20T10:08:04.355Z,99405.81
2023-03-20T10:10:46.749Z,99400.72
2023-03-20T10:13:41.156Z,99402.50
2023-03-20T10:16:20.861Z,99408.56
2023-03-20T10:19:03.166Z,99400.19
2023-03-20T10:21:43.783Z,99395.78
2023-03-20T10:24:20.731Z,99393.97
2023-03-20T10:26:54.963Z,99383.94
2023-03-20T10:29:34.903Z,99388.88
2023-03-20T10:32:12.474Z,99391.00
2023-03-20T10:34:54.524Z,99385.09
2023-03-20T10:37:45.840Z,99384.41
2023-03-20T10:40:31.970Z,99376.69
2023-03-20T10:43:03.910Z,99377.69
2023-03-20T10:45:39.957Z,99376.16
2023-03-20T10:48:18.303Z,99378.03
2023-03-20T10:50:52.758Z,99369.34
2023-03-20T10:53:31.367Z,99360.84
2023-03-20T10:56:04.775Z,99356.56
2023-03-20T10:58:40.788Z,99358.38
2023-03-20T11:01:09.972Z,99347.13
2023-03-20T11:03:39.986Z,99356.66
2023-03-20T11:06:18.946Z,99345.19
2023-03-20T11:08:52.183Z,99345.34
2023-03-20T11:11:28.111Z,99336.63
2023-03-20T11:13:57.258Z,99337.03
2023-03-20T11:16:33.073Z,99336.34
2023-03-20T11:19:09.578Z,99338.66
2023-03-20T11:21:48.647Z,99327.56
2023-03-20T11:24:35.324Z,99333.41
2023-03-20T11:27:08.624Z,99322.41
2023-03-20T11:29:37.524Z,99325.09
2023-03-20T11:32:17.222Z,99320.78
2023-03-20T11:34:46.097Z,99316.81
2023-03-20T11:37:26.037Z,99317.06
2023-03-20T11:40:15.275Z,99307.81
2023-03-20T11:42:55.145Z,99310.84
2023-03-20T11:45:23.987Z,99300.66
2023-03-20T11:47:55.283Z,99299.59
2023-03-20T11:50:32.441Z,99302.00
2023-03-20T11:53:01.971Z,99296.16
2023-03-20T11:55:33.941Z,99295.59
2023-03-20T11:58:05.921Z,99299.13
2023-03-20T12:00:39.813Z,99302.63
2023-03-20T12:03:55.515Z,99299.19
2023-03-20T12:06:28.007Z,99280.41
2023-03-20T12:09:00.220Z,99286.78
2023-03-20T12:11:46.625Z,99282.69
2023-03-20T12:14:25.914Z,99275.44
2023-03-20T12:17:06.599Z,99274.16
2023-03-20T12:19:36.587Z,99278.31
2023-03-20T12:22:19.781Z,99286.75
2023-03-20T12:24:56.280Z,99286.09
2023-03-20T12:27:34.861Z,99283.81
2023-03-20T12:30:11.680Z,99285.28
2023-03-20T12:32:47.326Z,99280.47
2023-03-20T12:35:21.810Z,99277.28
2023-03-20T12:37:51.221Z,99282.66
2023-03-20T12:40:27.812Z,99276.59
2023-03-20T12:43:12.193Z,99279.94
2023-03-20T12:45:47.039Z,99275.69
2023-03-20T12:48:47.364Z,99269.50
2023-03-20T12:51:25.059Z,99276.78
2023-03-20T12:54:09.343Z,99265.50
2023-03-20T12:57:00.319Z,99264.47
2023-03-20T12:59:42.926Z,99260.91
2023-03-20T13:02:31.395Z,99262.88
2023-03-20T13:05:16.630Z,99256.56
2023-03-20T13:08:04.435Z,99254.41
2023-03-20T13:10:39.138Z,99253.28
2023-03-20T13:13:21.642Z,99258.31
2023-03-20T13:16:06.207Z,99250.69
2023-03-20T13:18:50.287Z,99249.06
2023-03-20T13:21:28.631Z,99242.38
2023-03-20T13:24:13.014Z,99244.25
2023-03-20T13:26:49.848Z,99247.53
2023-03-20T13:29:27.934Z,99245.41
2023-03-20T13:32:14.969Z,99249.06
2023-03-20T13:35:12.619Z,99245.09
2023-03-20T13:37:44.994Z,99252.31
2023-03-20T13:40:21.986Z,99255.44
2023-03-20T13:42:56.561Z,99254.69
2023-03-20T13:45:36.259Z,99250.47
2023-03-20T13:48:25.467Z,99262.53
2023-03-20T13:51:02.240Z,99254.09
2023-03-20T13:53:39.519Z,99255.69
2023-03-20T13:56:21.652Z,99252.34
2023-03-20T13:59:11.529Z,99248.25
2023-03-20T14:01:51.426Z,99257.28
2023-03-20T14:04:25.906Z,99255.53
2023-03-20T14:06:56.946Z,99259.59
2023-03-20T14:09:43.159Z,99250.59
2023-03-20T14:12:14.293Z,99254.22
2023-03-20T14:14:47.656Z,99256.09
2023-03-20T14:17:21.098Z,99253.41
2023-03-20T14:19:52.140Z,99246.75
2023-03-20T14:22:24.124Z,99248.94
2023-03-20T14:24:58.536Z,99245.22
2023-03-20T14:27:44.022Z,99253.84
2023-03-20T14:30:45.947Z,99246.47
2023-03-20T14:33:31.443Z,99234.19
2023-03-20T14:36:27.615Z,99229.41
2023-03-20T14:39:12.162Z,99236.75
2023-03-20T14:42:01.442Z,99241.59
2023-03-20T14:44:50.765Z,99230.34
2023-03-20T14:47:31.795Z,99240.47
2023-03-20T14:50:11.304Z,99237.19
2023-03-20T14:52:56.754Z,99236.03
2023-03-20T14:55:52.645Z,99236.97
2023-03-20T14:58:54.517Z,99244.34
2023-03-20T15:01:47.516Z,99242.13
2023-03-20T15:04:39.117Z,99244.94
2023-03-20T15:07:15.817Z,99244.13
2023-03-20T15:09:48.758Z,99243.53
2023-03-20T15:12:21.854Z,99237.19
2023-03-20T15:14:56.849Z,99238.44
2023-03-20T15:17:29.387Z,99245.75
2023-03-20T15:20:04.587Z,99237.09
2023-03-20T15:22:33.069Z,99250.59
2023-03-20T15:25:02.923Z,99241.59
2023-03-20T15:27:32.323Z,99237.53
2023-03-20T15:30:03.619Z,99243.31
2023-03-20T15:32:33.952Z,99247.28
2023-03-20T15:35:05.347Z,99251.56
2023-03-20T15:37:36.162Z,99245.00
2023-03-20T15:40:14.360Z,99259.03
2023-03-20T15:42:42.857Z,99249.41
2023-03-20T15:45:27.347Z,99247.53
2023-03-20T15:48:02.745Z,99253.03
2023-03-20T15:50:35.588Z,99262.28
2023-03-20T15:53:05.456Z,99260.03
2023-03-20T15:55:36.710Z,99269.25
2023-03-20T15:58:06.621Z,99262.56
2023-03-20T16:00:40.875Z,99268.97
2023-03-20T16:03:20.224Z,99276.91
2023-03-20T16:05:51.479Z,99275.47
2023-03-20T16:08:27.115Z,99272.53
2023-03-20T16:11:01.365Z,99267.31
2023-03-20T16:13:39.017Z,99271.59
2023-03-20T16:16:12.484Z,99279.13
2023-03-20T16:18:42.111Z,99285.06
2023-03-20T16:21:18.378Z,99275.03
2023-03-20T16:23:50.149Z,99294.03
2023-03-20T16:26:23.070Z,99301.44
2023-03-20T16:28:53.760Z,99303.41
2023-03-20T16:31:28.549Z,99297.28
2023-03-20T16:34:01.155Z,99291.06
2023-03-20T16:36:32.963Z,99298.75
2023-03-20T16:39:10.808Z,99292.81
2023-03-20T16:41:41.929Z,99297.38
2023-03-20T16:44:17.087Z,99295.41
2023-03-20T16:47:05.230Z,99294.88
2023-03-20T16:50:19.178Z,99301.06
2023-03-20T16:52:51.790Z,99297.09
2023-03-20T16:55:27.741Z,99303.78
2023-03-20T16:58:01.878Z,99312.88
2023-03-20T17:00:33.467Z,99320.38
2023-03-20T17:03:15.957Z,99313.94
2023-03-20T17:05:54.796Z,99317.66
2023-03-20T17:08:35.599Z,99326.13
2023-03-20T17:11:12.726Z,99315.94
2023-03-20T17:13:44.449Z,99328.03
2023-03-20T17:16:19.970Z,99321.25
2023-03-20T17:18:59.482Z,99332.69
2023-03-20T17:21:28.530Z,99332.19
2023-03-20T17:23:57.424Z,99340.53
2023-03-20T17:26:26.450Z,99341.38
2023-03-20T17:28:57.144Z,99338.09
2023-03-20T17:31:25.864Z,99336.94
2023-03-20T17:33:55.106Z,99339.72
2023-03-20T17:36:28.158Z,99346.72
2023-03-20T17:38:58.573Z,99337.88
2023-03-20T17:41:28.870Z,99345.72
2023-03-20T17:43:58.960Z,99336.38
2023-03-20T17:46:31.559Z,99337.00
2023-03-20T17:49:04.515Z,99324.03
2023-03-20T17:51:34.777Z,99336.09
2023-03-20T17:54:04.021Z,99335.09
2023-03-20T17:56:34.114Z,99335.38
2023-03-20T17:59:06.692Z,99347.16
2023-03-20T18:01:35.993Z,99348.59
2023-03-20T18:04:04.516Z,99360.00
2023-03-20T18:06:38.081Z,99360.66
2023-03-20T18:09:12.731Z,99358.50
2023-03-20T18:11:41.679Z,99353.56
2023-03-20T18:14:18.180Z,99363.34
2023-03-20T18:16:48.936Z,99352.03
2023-03-20T18:19:30.994Z,99362.13
2023-03-20T18:22:01.688Z,99358.84
2023-03-20T18:24:32.030Z,99357.47
2023-03-20T18:27:01.967Z,99362.53
2023-03-20T18:29:32.689Z,99356.44
2023-03-20T18:32:03.375Z,99362.00
2023-03-20T18:34:34.395Z,99353.16
2023-03-20T18:37:08.133Z,99364.25
2023-03-20T18:39:38.025Z,99360.97
2023-03-20T18:42:12.451Z,99347.41
2023-03-20T18:44:44.230Z,99352.97
2023-03-20T18:47:13.984Z,99354.91
2023-03-20T18:49:44.544Z,99366.03
2023-03-20T18:52:15.041Z,99365.19
2023-03-20T18:54:45.327Z,99366.34
2023-03-20T18:57:16.148Z,99367.19
2023-03-20T18:59:49.855Z,99368.28
2023-03-20T19:02:21.076Z,99369.94
2023-03-20T19:04:53.397Z,99370.25
2023-03-20T19:07:25.660Z,99365.84
2023-03-20T19:09:58.591Z,99368.13
2023-03-20T19:12:30.277Z,99373.94
2023-03-20T19:15:05.358Z,99370.66
2023-03-20T19:17:35.753Z,99377.34
2023-03-20T19:20:11.059Z,99384.38
2023-03-20T19:22:41.431Z,99376.31
2023-03-20T19:25:13.021Z,99381.69
2023-03-20T19:27:43.989Z,99376.75
2023-03-20T19:30:31.391Z,99384.06
2023-03-20T19:33:02.509Z,99378.00
2023-03-20T19:36:01.116Z,99381.38
2023-03-20T19:38:26.173Z,99380.34
2023-03-20T19:40:59.270Z,99381.28
2023-03-20T19:43:30.262Z,99383.81
2023-03-20T19:46:03.590Z,99384.47
2023-03-20T19:48:47.097Z,99391.97
2023-03-20T19:51:23.622Z,99385.06
2023-03-20T19:53:54.708Z,99390.94
2023-03-20T19:56:26.321Z,99388.44
2023-03-20T19:58:56.855Z,99390.38
2023-03-20T20:01:28.688Z,99400.69
2023-03-20T20:03:59.601Z,99394.00
2023-03-20T20:06:32.593Z,99393.16
2023-03-20T20:09:03.819Z,99388.75
2023-03-20T20:11:33.269Z,99389.88
2023-03-20T20:14:08.527Z,99389.38
2023-03-20T20:16:43.662Z,99384.97
2023-03-20T20:19:20.688Z,99388.03
2023-03-20T20:24:44.240Z,99380.63
2023-03-20T20:27:17.188Z,99385.34
2023-03-20T20:29:52.042Z,99376.81
2023-03-20T20:32:26.805Z,99381.84
2023-03-20T20:35:40.615Z,99376.91
2023-03-20T20:38:36.772Z,99384.41
2023-03-20T20:40:44.679Z,99386.66
2023-03-20T20:43:39.241Z,99382.25
2023-03-20T20:46:10.192Z,99385.63
2023-03-20T20:48:44.077Z,99393.41
2023-03-20T20:51:13.860Z,99385.09
2023-03-20T20:53:43.503Z,99389.81
2023-03-20T20:56:12.849Z,99386.50
2023-03-20T20:58:42.149Z,99379.31
2023-03-20T21:01:12.638Z,99388.78
2023-03-20T21:03:44.345Z,99389.38
2023-03-20T21:06:13.375Z,99386.91
2023-03-20T21:08:42.496Z,99389.16
2023-03-20T21:11:17.699Z,99390.59
2023-03-20T21:13:47.285Z,99384.53
2023-03-20T21:16:18.797Z,99390.38
2023-03-20T21:18:50.291Z,99394.56
2023-03-20T21:21:19.554Z,99396.31
2023-03-20T21:23:48.868Z,99391.34
2023-03-20T21:26:18.146Z,99393.94
2023-03-20T21:28:47.071Z,99397.28
2023-03-20T21:31:30.232Z,99398.19
2023-03-20T21:34:01.229Z,99392.13
2023-03-20T21:36:29.976Z,99399.94
2023-03-20T21:39:07.878Z,99400.25
2023-03-20T21:41:38.789Z,99397.25
2023-03-20T21:44:08.037Z,99397.56
2023-03-20T21:58:41.327Z,99403.19
2023-03-20T22:04:26.930Z,99410.50
2023-03-20T22:07:13.494Z,99408.94
2023-03-20T22:12:48.629Z,99409.88
2023-03-20T22:18:12.311Z,99408.91
2023-03-20T22:21:22.492Z,99408.66
2023-03-20T22:29:39.502Z,99396.91
2023-03-20T22:35:22.868Z,99399.72
2023-03-20T22:41:00.736Z,99399.56
2023-03-20T22:46:07.734Z,99401.88
2023-03-20T22:48:41.615Z,99395.28
2023-03-20T22:51:10.746Z,99402.50
2023-03-20T22:53:39.283Z,99395.91
2023-03-20T22:56:11.913Z,99397.94
2023-03-20T22:58:40.667Z,99391.31
2023-03-20T23:01:11.420Z,99384.19
2023-03-20T23:03:42.283Z,99399.44
2023-03-20T23:06:18.759Z,99399.22
2023-03-20T23:08:52.421Z,99395.09
2023-03-20T23:11:25.219Z,99397.59
2023-03-20T23:13:54.028Z,99401.19
2023-03-20T23:16:22.548Z,99395.44
2023-03-20T23:18:51.155Z,99393.47
2023-03-20T23:21:20.810Z,99385.47
2023-03-20T23:23:49.315Z,99395.72
2023-03-20T23:26:21.161Z,99388.56
2023-03-20T23:28:53.307Z,99386.88
2023-03-20T23:31:23.877Z,99382.47
2023-03-20T23:33:55.399Z,99383.81
2023-03-20T23:36:35.919Z,99384.66
2023-03-20T23:39:06.433Z,99377.19
2023-03-20T23:42:27.781Z,99380.47
2023-03-20T23:44:25.092Z,99384.06
2023-03-20T23:46:54.722Z,99381.84
2023-03-20T23:49:23.206Z,99384.31
2023-03-20T23:51:51.701Z,99381.25
2023-03-20T23:54:20.786Z,99388.72
2023-03-20T23:56:49.265Z,99380.44
2023-03-20T23:59:22.245Z,99379.28
